sensor_id;sensor_type;location;lat;lon;timestamp;pressure;altitude;pressure_sealevel;temperature;humidity
75418;BME280;63997;52.112;5.420;2023-08-21T00:00:42;102416.28;;;17.20;87.25
75418;BME280;63997;52.112;5.420;2023-08-21T00:03:08;102423.22;;;17.21;87.09
75418;BME280;63997;52.112;5.420;2023-08-21T00:05:35;102423.38;;;17.25;86.87
75418;BME280;63997;52.112;5.420;2023-08-21T00:08:02;102424.78;;;17.22;87.10
75418;BME280;63997;52.112;5.420;2023-08-21T00:10:31;102413.13;;;17.18;86.95
75418;BME280;63997;52.112;5.420;2023-08-21T00:13:01;102424.84;;;17.13;87.28
75418;BME280;63997;52.112;5.420;2023-08-21T00:15:27;102420.44;;;17.09;87.10
75418;BME280;63997;52.112;5.420;2023-08-21T00:17:54;102428.50;;;17.09;87.34
75418;BME280;63997;52.112;5.420;2023-08-21T00:20:20;102430.56;;;17.12;87.68
75418;BME280;63997;52.112;5.420;2023-08-21T00:22:47;102432.59;;;17.15;87.55
75418;BME280;63997;52.112;5.420;2023-08-21T00:25:13;102429.56;;;17.16;87.42
75418;BME280;63997;52.112;5.420;2023-08-21T00:27:40;102427.66;;;17.17;86.81
75418;BME280;63997;52.112;5.420;2023-08-21T00:30:07;102430.84;;;17.19;87.03
75418;BME280;63997;52.112;5.420;2023-08-21T00:32:36;102431.63;;;17.19;86.86
75418;BME280;63997;52.112;5.420;2023-08-21T00:35:04;102430.84;;;17.19;87.00
75418;BME280;63997;52.112;5.420;2023-08-21T00:37:31;102414.44;;;17.12;87.08
75418;BME280;63997;52.112;5.420;2023-08-21T00:39:57;102423.13;;;17.09;87.85
75418;BME280;63997;52.112;5.420;2023-08-21T00:42:24;102421.91;;;17.06;88.12
75418;BME280;63997;52.112;5.420;2023-08-21T00:44:50;102420.59;;;17.12;88.27
75418;BME280;63997;52.112;5.420;2023-08-21T00:47:17;102422.63;;;17.15;87.98
75418;BME280;63997;52.112;5.420;2023-08-21T00:49:45;102419.47;;;17.13;87.59
75418;BME280;63997;52.112;5.420;2023-08-21T00:52:15;102422.34;;;17.08;88.15
75418;BME280;63997;52.112;5.420;2023-08-21T00:54:43;102418.72;;;17.04;88.60
75418;BME280;63997;52.112;5.420;2023-08-21T00:57:11;102417.94;;;17.04;88.16
75418;BME280;63997;52.112;5.420;2023-08-21T00:59:41;102414.91;;;17.05;87.75
75418;BME280;63997;52.112;5.420;2023-08-21T01:02:07;102415.59;;;17.02;87.56
75418;BME280;63997;52.112;5.420;2023-08-21T01:04:34;102422.38;;;17.00;88.28
75418;BME280;63997;52.112;5.420;2023-08-21T01:07:02;102415.25;;;17.04;88.18
75418;BME280;63997;52.112;5.420;2023-08-21T01:10:09;102412.91;;;17.02;87.70
75418;BME280;63997;52.112;5.420;2023-08-21T01:12:48;102405.34;;;16.96;88.11
75418;BME280;63997;52.112;5.420;2023-08-21T01:15:17;102405.97;;;16.92;88.54
75418;BME280;63997;52.112;5.420;2023-08-21T01:17:45;102422.75;;;16.89;88.71
75418;BME280;63997;52.112;5.420;2023-08-21T01:20:13;102417.25;;;16.86;88.76
75418;BME280;63997;52.112;5.420;2023-08-21T01:22:42;102418.66;;;16.83;88.66
75418;BME280;63997;52.112;5.420;2023-08-21T01:25:13;102406.81;;;16.84;88.76
75418;BME280;63997;52.112;5.420;2023-08-21T01:27:48;102411.19;;;16.89;88.67
75418;BME280;63997;52.112;5.420;2023-08-21T01:30:16;102408.50;;;16.89;88.29
75418;BME280;63997;52.112;5.420;2023-08-21T01:33:05;102410.28;;;16.85;88.08
75418;BME280;63997;52.112;5.420;2023-08-21T01:35:33;102411.41;;;16.84;88.45
75418;BME280;63997;52.112;5.420;2023-08-21T01:38:05;102410.81;;;16.78;88.57
75418;BME280;63997;52.112;5.420;2023-08-21T01:40:31;102417.91;;;16.74;88.64
75418;BME280;63997;52.112;5.420;2023-08-21T01:42:58;102417.91;;;16.74;89.02
75418;BME280;63997;52.112;5.420;2023-08-21T01:45:24;102414.28;;;16.79;88.59
75418;BME280;63997;52.112;5.420;2023-08-21T01:47:51;102427.72;;;16.79;88.98
75418;BME280;63997;52.112;5.420;2023-08-21T01:50:18;102425.03;;;16.79;89.01
75418;BME280;63997;52.112;5.420;2023-08-21T01:52:45;102417.88;;;16.83;88.96
75418;BME280;63997;52.112;5.420;2023-08-21T01:55:11;102420.56;;;16.83;88.67
75418;BME280;63997;52.112;5.420;2023-08-21T01:57:38;102420.72;;;16.78;88.81
75418;BME280;63997;52.112;5.420;2023-08-21T02:00:05;102417.44;;;16.72;88.84
75418;BME280;63997;52.112;5.420;2023-08-21T02:02:31;102418.06;;;16.69;88.90
75418;BME280;63997;52.112;5.420;2023-08-21T02:04:58;102418.84;;;16.70;89.00
75418;BME280;63997;52.112;5.420;2023-08-21T02:07:24;102423.28;;;16.74;89.16
75418;BME280;63997;52.112;5.420;2023-08-21T02:09:51;102409.19;;;16.77;88.78
75418;BME280;63997;52.112;5.420;2023-08-21T02:12:17;102419.31;;;16.80;89.01
75418;BME280;63997;52.112;5.420;2023-08-21T02:14:45;102418.97;;;16.82;89.04
75418;BME280;63997;52.112;5.420;2023-08-21T02:17:11;102419.47;;;16.84;88.85
75418;BME280;63997;52.112;5.420;2023-08-21T02:19:38;102412.03;;;16.81;89.42
75418;BME280;63997;52.112;5.420;2023-08-21T02:22:04;102418.03;;;16.78;89.65
75418;BME280;63997;52.112;5.420;2023-08-21T02:24:31;102414.56;;;16.77;89.83
75418;BME280;63997;52.112;5.420;2023-08-21T02:26:57;102418.84;;;16.78;89.91
75418;BME280;63997;52.112;5.420;2023-08-21T02:29:24;102418.97;;;16.82;89.93
75418;BME280;63997;52.112;5.420;2023-08-21T02:31:50;102416.28;;;16.82;89.83
75418;BME280;63997;52.112;5.420;2023-08-21T02:34:16;102413.59;;;16.82;90.17
75418;BME280;63997;52.112;5.420;2023-08-21T02:36:44;102412.38;;;16.79;90.21
75418;BME280;63997;52.112;5.420;2023-08-21T02:39:13;102414.28;;;16.79;90.03
75418;BME280;63997;52.112;5.420;2023-08-21T02:41:40;102425.47;;;16.81;90.10
75418;BME280;63997;52.112;5.420;2023-08-21T02:44:08;102430.41;;;16.79;90.14
75418;BME280;63997;52.112;5.420;2023-08-21T02:46:37;102425.31;;;16.77;90.07
75418;BME280;63997;52.112;5.420;2023-08-21T02:49:05;102421.53;;;16.78;90.19
75418;BME280;63997;52.112;5.420;2023-08-21T02:51:32;102423.41;;;16.78;90.43
75418;BME280;63997;52.112;5.420;2023-08-21T02:53:58;102426.91;;;16.78;90.26
75418;BME280;63997;52.112;5.420;2023-08-21T02:56:24;102423.56;;;16.81;90.10
75418;BME280;63997;52.112;5.420;2023-08-21T02:58:51;102423.72;;;16.85;89.80
75418;BME280;63997;52.112;5.420;2023-08-21T03:01:17;102426.53;;;16.88;89.89
75418;BME280;63997;52.112;5.420;2023-08-21T03:03:44;102417.69;;;16.88;89.56
75418;BME280;63997;52.112;5.420;2023-08-21T03:06:11;102419.94;;;16.86;89.43
75418;BME280;63997;52.112;5.420;2023-08-21T03:08:38;102419.94;;;16.86;89.85
75418;BME280;63997;52.112;5.420;2023-08-21T03:11:05;102419.94;;;16.86;90.50
75418;BME280;63997;52.112;5.420;2023-08-21T03:13:31;102422.28;;;16.87;90.55
75418;BME280;63997;52.112;5.420;2023-08-21T03:15:57;102418.03;;;16.86;90.60
75418;BME280;63997;52.112;5.420;2023-08-21T03:18:24;102420.38;;;16.88;90.37
75418;BME280;63997;52.112;5.420;2023-08-21T03:20:50;102426.88;;;16.87;90.39
75418;BME280;63997;52.112;5.420;2023-08-21T03:23:17;102426.72;;;16.83;90.55
75418;BME280;63997;52.112;5.420;2023-08-21T03:25:43;102420.09;;;16.81;90.68
75418;BME280;63997;52.112;5.420;2023-08-21T03:28:10;102422.00;;;16.80;90.56
75418;BME280;63997;52.112;5.420;2023-08-21T03:30:39;102428.00;;;16.77;90.97
75418;BME280;63997;52.112;5.420;2023-08-21T03:33:05;102430.25;;;16.75;90.96
75418;BME280;63997;52.112;5.420;2023-08-21T03:35:33;102422.81;;;16.72;90.78
75418;BME280;63997;52.112;5.420;2023-08-21T03:37:59;102421.53;;;16.70;90.50
75418;BME280;63997;52.112;5.420;2023-08-21T03:40:26;102420.44;;;16.71;90.65
75418;BME280;63997;52.112;5.420;2023-08-21T03:42:52;102416.03;;;16.75;90.10
75418;BME280;63997;52.112;5.420;2023-08-21T03:45:19;102414.44;;;16.74;90.15
75418;BME280;63997;52.112;5.420;2023-08-21T03:47:45;102412.38;;;16.71;90.25
75418;BME280;63997;52.112;5.420;2023-08-21T03:50:12;102407.94;;;16.66;90.04
75418;BME280;63997;52.112;5.420;2023-08-21T03:52:38;102406.25;;;16.61;90.29
75418;BME280;63997;52.112;5.420;2023-08-21T03:55:05;102407.03;;;16.62;90.42
75418;BME280;63997;52.112;5.420;2023-08-21T03:57:32;102404.03;;;16.63;90.82
75418;BME280;63997;52.112;5.420;2023-08-21T03:59:58;102409.84;;;16.65;90.28
75418;BME280;63997;52.112;5.420;2023-08-21T04:02:25;102407.94;;;16.66;90.00
75418;BME280;63997;52.112;5.420;2023-08-21T04:04:52;102410.97;;;16.64;89.79
75418;BME280;63997;52.112;5.420;2023-08-21T04:07:18;102411.28;;;16.63;89.90
75418;BME280;63997;52.112;5.420;2023-08-21T04:09:45;102411.13;;;16.59;90.09
75418;BME280;63997;52.112;5.420;2023-08-21T04:12:12;102413.22;;;16.54;90.18
75418;BME280;63997;52.112;5.420;2023-08-21T04:14:39;102414.16;;;16.49;89.91
75418;BME280;63997;52.112;5.420;2023-08-21T04:17:06;102420.50;;;16.45;89.85
75418;BME280;63997;52.112;5.420;2023-08-21T04:19:32;102422.38;;;16.44;90.00
75418;BME280;63997;52.112;5.420;2023-08-21T04:22:00;102427.75;;;16.44;90.13
75418;BME280;63997;52.112;5.420;2023-08-21T04:24:26;102428.69;;;16.48;90.28
75418;BME280;63997;52.112;5.420;2023-08-21T04:26:53;102430.75;;;16.51;90.02
75418;BME280;63997;52.112;5.420;2023-08-21T04:29:19;102432.00;;;16.54;90.39
75418;BME280;63997;52.112;5.420;2023-08-21T04:31:45;102423.16;;;16.53;90.68
75418;BME280;63997;52.112;5.420;2023-08-21T04:34:12;102420.47;;;16.53;90.64
75418;BME280;63997;52.112;5.420;2023-08-21T04:36:38;102415.91;;;16.54;90.77
75418;BME280;63997;52.112;5.420;2023-08-21T04:39:05;102425.84;;;16.53;90.64
75418;BME280;63997;52.112;5.420;2023-08-21T04:41:31;102436.91;;;16.52;90.99
75418;BME280;63997;52.112;5.420;2023-08-21T04:43:58;102433.44;;;16.51;91.00
75418;BME280;63997;52.112;5.420;2023-08-21T04:46:26;102435.66;;;16.49;91.09
75418;BME280;63997;52.112;5.420;2023-08-21T04:48:52;102425.22;;;16.48;91.11
75418;BME280;63997;52.112;5.420;2023-08-21T04:51:18;102431.38;;;16.48;91.03
75418;BME280;63997;52.112;5.420;2023-08-21T04:53:46;102431.06;;;16.50;91.55
75418;BME280;63997;52.112;5.420;2023-08-21T04:56:13;102424.28;;;16.52;91.24
75418;BME280;63997;52.112;5.420;2023-08-21T04:58:39;102430.59;;;16.56;91.38
75418;BME280;63997;52.112;5.420;2023-08-21T05:01:05;102424.56;;;16.59;91.03
75418;BME280;63997;52.112;5.420;2023-08-21T05:03:32;102435.78;;;16.61;90.73
75418;BME280;63997;52.112;5.420;2023-08-21T05:05:58;102434.53;;;16.59;90.68
75418;BME280;63997;52.112;5.420;2023-08-21T05:08:25;102439.09;;;16.58;90.55
75418;BME280;63997;52.112;5.420;2023-08-21T05:10:59;102440.69;;;16.59;90.72
75418;BME280;63997;52.112;5.420;2023-08-21T05:13:25;102444.63;;;16.62;90.65
75418;BME280;63997;52.112;5.420;2023-08-21T05:15:54;102450.81;;;16.62;90.61
75418;BME280;63997;52.112;5.420;2023-08-21T05:18:23;102447.00;;;16.63;91.03
75418;BME280;63997;52.112;5.420;2023-08-21T05:20:54;102448.41;;;16.70;91.39
75418;BME280;63997;52.112;5.420;2023-08-21T05:23:21;102447.59;;;16.78;90.81
75418;BME280;63997;52.112;5.420;2023-08-21T05:25:48;102446.78;;;16.86;90.90
75418;BME280;63997;52.112;5.420;2023-08-21T05:28:15;102443.59;;;16.92;90.95
75418;BME280;63997;52.112;5.420;2023-08-21T05:30:41;102447.56;;;16.95;90.89
75418;BME280;63997;52.112;5.420;2023-08-21T05:33:08;102453.72;;;16.96;90.54
75418;BME280;63997;52.112;5.420;2023-08-21T05:35:37;102443.44;;;16.98;91.03
75418;BME280;63997;52.112;5.420;2023-08-21T05:38:04;102442.31;;;16.99;91.01
75418;BME280;63997;52.112;5.420;2023-08-21T05:40:30;102444.38;;;17.02;91.02
75418;BME280;63997;52.112;5.420;2023-08-21T05:42:57;102445.28;;;17.06;91.00
75418;BME280;63997;52.112;5.420;2023-08-21T05:45:24;102452.38;;;17.10;91.10
75418;BME280;63997;52.112;5.420;2023-08-21T05:47:50;102455.38;;;17.17;91.08
75418;BME280;63997;52.112;5.420;2023-08-21T05:50:17;102454.53;;;17.26;91.18
75418;BME280;63997;52.112;5.420;2023-08-21T05:52:43;102447.66;;;17.37;91.26
75418;BME280;63997;52.112;5.420;2023-08-21T05:55:10;102454.22;;;17.48;91.04
75418;BME280;63997;52.112;5.420;2023-08-21T05:57:37;102456.22;;;17.60;90.93
75418;BME280;63997;52.112;5.420;2023-08-21T06:00:05;102458.19;;;17.71;91.24
75418;BME280;63997;52.112;5.420;2023-08-21T06:02:34;102451.91;;;17.88;91.21
75418;BME280;63997;52.112;5.420;2023-08-21T06:05:02;102452.44;;;18.03;90.92
75418;BME280;63997;52.112;5.420;2023-08-21T06:07:29;102459.09;;;18.17;91.13
75418;BME280;63997;52.112;5.420;2023-08-21T06:09:55;102457.25;;;18.30;90.93
75418;BME280;63997;52.112;5.420;2023-08-21T06:12:22;102457.72;;;18.44;90.33
75418;BME280;63997;52.112;5.420;2023-08-21T06:14:50;102452.84;;;18.59;89.79
75418;BME280;63997;52.112;5.420;2023-08-21T06:17:19;102452.53;;;18.72;89.29
75418;BME280;63997;52.112;5.420;2023-08-21T06:19:45;102457.94;;;18.85;89.22
75418;BME280;63997;52.112;5.420;2023-08-21T06:22:11;102461.56;;;19.01;89.05
75418;BME280;63997;52.112;5.420;2023-08-21T06:24:38;102454.84;;;19.19;88.19
75418;BME280;63997;52.112;5.420;2023-08-21T06:27:04;102461.78;;;19.33;87.19
75418;BME280;63997;52.112;5.420;2023-08-21T06:29:35;102457.03;;;19.54;86.69
75418;BME280;63997;52.112;5.420;2023-08-21T06:32:05;102459.25;;;19.76;85.52
75418;BME280;63997;52.112;5.420;2023-08-21T06:34:32;102461.47;;;19.87;84.11
75418;BME280;63997;52.112;5.420;2023-08-21T06:36:58;102456.50;;;19.89;83.79
75418;BME280;63997;52.112;5.420;2023-08-21T06:39:25;102467.13;;;19.81;84.42
75418;BME280;63997;52.112;5.420;2023-08-21T06:41:52;102462.75;;;19.77;84.91
75418;BME280;63997;52.112;5.420;2023-08-21T06:44:18;102468.69;;;20.11;85.35
75418;BME280;63997;52.112;5.420;2023-08-21T06:46:44;102465.75;;;20.16;85.35
75418;BME280;63997;52.112;5.420;2023-08-21T06:49:11;102469.31;;;20.20;84.99
75418;BME280;63997;52.112;5.420;2023-08-21T06:51:38;102461.41;;;20.55;83.96
75418;BME280;63997;52.112;5.420;2023-08-21T06:54:08;102447.09;;;22.53;79.71
75418;BME280;63997;52.112;5.420;2023-08-21T06:56:34;102458.56;;;24.06;71.95
75418;BME280;63997;52.112;5.420;2023-08-21T06:59:00;102467.28;;;24.22;69.83
75418;BME280;63997;52.112;5.420;2023-08-21T07:01:28;102470.66;;;23.78;70.00
75418;BME280;63997;52.112;5.420;2023-08-21T07:03:54;102472.50;;;23.40;70.88
75418;BME280;63997;52.112;5.420;2023-08-21T07:06:21;102475.94;;;23.64;70.30
75418;BME280;63997;52.112;5.420;2023-08-21T07:08:47;102463.22;;;24.90;65.14
75418;BME280;63997;52.112;5.420;2023-08-21T07:11:14;102469.66;;;25.16;63.57
75418;BME280;63997;52.112;5.420;2023-08-21T07:13:43;102472.81;;;24.70;64.47
75418;BME280;63997;52.112;5.420;2023-08-21T07:16:09;102464.88;;;25.71;63.06
75418;BME280;63997;52.112;5.420;2023-08-21T07:18:36;102463.50;;;26.81;57.43
75418;BME280;63997;52.112;5.420;2023-08-21T07:21:02;102472.47;;;26.92;55.75
75418;BME280;63997;52.112;5.420;2023-08-21T07:23:44;102477.94;;;27.06;55.04
75418;BME280;63997;52.112;5.420;2023-08-21T07:26:11;102477.50;;;26.19;54.56
75418;BME280;63997;52.112;5.420;2023-08-21T07:28:37;102484.28;;;25.63;56.95
75418;BME280;63997;52.112;5.420;2023-08-21T07:31:04;102481.66;;;25.80;58.44
75418;BME280;63997;52.112;5.420;2023-08-21T07:33:30;102482.00;;;25.72;59.01
75418;BME280;63997;52.112;5.420;2023-08-21T07:36:06;102481.19;;;25.68;56.72
75418;BME280;63997;52.112;5.420;2023-08-21T07:38:32;102476.53;;;25.68;57.95
75418;BME280;63997;52.112;5.420;2023-08-21T07:41:10;102470.53;;;26.64;55.56
75418;BME280;63997;52.112;5.420;2023-08-21T07:43:37;102478.34;;;26.58;55.66
75418;BME280;63997;52.112;5.420;2023-08-21T07:46:04;102478.25;;;26.19;57.02
75418;BME280;63997;52.112;5.420;2023-08-21T07:48:32;102484.47;;;26.05;57.13
75418;BME280;63997;52.112;5.420;2023-08-21T07:50:58;102480.97;;;26.01;57.05
75418;BME280;63997;52.112;5.420;2023-08-21T07:53:27;102482.63;;;26.42;55.46
75418;BME280;63997;52.112;5.420;2023-08-21T07:55:53;102485.34;;;26.59;55.65
75418;BME280;63997;52.112;5.420;2023-08-21T07:58:20;102490.00;;;26.34;57.74
75418;BME280;63997;52.112;5.420;2023-08-21T08:00:46;102483.34;;;26.17;53.66
75418;BME280;63997;52.112;5.420;2023-08-21T08:03:14;102487.13;;;25.77;55.38
75418;BME280;63997;52.112;5.420;2023-08-21T08:05:41;102482.00;;;25.72;55.80
75418;BME280;63997;52.112;5.420;2023-08-21T08:08:20;102491.59;;;25.44;57.82
75418;BME280;63997;52.112;5.420;2023-08-21T08:10:46;102484.25;;;25.55;59.55
75418;BME280;63997;52.112;5.420;2023-08-21T08:13:12;102480.00;;;25.62;57.92
75418;BME280;63997;52.112;5.420;2023-08-21T08:15:39;102488.31;;;25.83;55.69
75418;BME280;63997;52.112;5.420;2023-08-21T08:18:11;102489.84;;;25.80;57.73
75418;BME280;63997;52.112;5.420;2023-08-21T08:20:37;102498.31;;;25.61;55.67
75418;BME280;63997;52.112;5.420;2023-08-21T08:23:04;102499.81;;;25.51;54.70
75418;BME280;63997;52.112;5.420;2023-08-21T08:25:30;102511.34;;;25.27;58.35
75418;BME280;63997;52.112;5.420;2023-08-21T08:27:57;102499.97;;;25.11;57.41
75418;BME280;63997;52.112;5.420;2023-08-21T08:30:24;102496.75;;;24.98;57.56
75418;BME280;63997;52.112;5.420;2023-08-21T08:32:52;102494.72;;;24.88;57.71
75418;BME280;63997;52.112;5.420;2023-08-21T08:35:21;102484.59;;;24.88;58.17
75418;BME280;63997;52.112;5.420;2023-08-21T08:37:48;102479.00;;;25.15;57.92
75418;BME280;63997;52.112;5.420;2023-08-21T08:40:14;102493.38;;;25.19;59.90
75418;BME280;63997;52.112;5.420;2023-08-21T08:42:41;102486.81;;;25.20;60.43
75418;BME280;63997;52.112;5.420;2023-08-21T08:45:08;102491.03;;;25.14;61.48
75418;BME280;63997;52.112;5.420;2023-08-21T08:47:35;102498.41;;;25.10;59.70
75418;BME280;63997;52.112;5.420;2023-08-21T08:50:03;102507.28;;;25.03;57.99
75418;BME280;63997;52.112;5.420;2023-08-21T08:52:35;102497.28;;;25.14;59.23
75418;BME280;63997;52.112;5.420;2023-08-21T08:55:02;102505.84;;;25.16;58.96
75418;BME280;63997;52.112;5.420;2023-08-21T08:57:30;102498.06;;;25.15;57.79
75418;BME280;63997;52.112;5.420;2023-08-21T08:59:56;102491.41;;;25.12;58.41
75418;BME280;63997;52.112;5.420;2023-08-21T09:02:24;102485.97;;;25.12;56.45
75418;BME280;63997;52.112;5.420;2023-08-21T09:04:52;102479.34;;;25.13;59.07
75418;BME280;63997;52.112;5.420;2023-08-21T09:07:19;102491.44;;;25.16;56.52
75418;BME280;63997;52.112;5.420;2023-08-21T09:09:48;102482.13;;;25.20;58.73
75418;BME280;63997;52.112;5.420;2023-08-21T09:12:17;102480.22;;;25.28;55.80
75418;BME280;63997;52.112;5.420;2023-08-21T09:14:44;102477.91;;;25.26;59.50
75418;BME280;63997;52.112;5.420;2023-08-21T09:17:11;102483.75;;;25.32;59.44
75418;BME280;63997;52.112;5.420;2023-08-21T09:19:38;102486.09;;;25.33;57.47
75418;BME280;63997;52.112;5.420;2023-08-21T09:22:16;102482.59;;;25.33;58.61
75418;BME280;63997;52.112;5.420;2023-08-21T09:25:02;102483.31;;;25.23;58.25
75418;BME280;63997;52.112;5.420;2023-08-21T09:27:38;102480.91;;;25.11;55.35
75418;BME280;63997;52.112;5.420;2023-08-21T09:30:09;102482.84;;;25.10;57.24
75418;BME280;63997;52.112;5.420;2023-08-21T09:32:55;102477.81;;;25.16;58.58
75418;BME280;63997;52.112;5.420;2023-08-21T09:35:23;102478.22;;;25.18;56.06
75418;BME280;63997;52.112;5.420;2023-08-21T09:37:50;102480.94;;;25.14;57.62
75418;BME280;63997;52.112;5.420;2023-08-21T09:40:20;102482.09;;;25.17;57.09
75418;BME280;63997;52.112;5.420;2023-08-21T09:42:56;102472.38;;;25.19;58.44
75418;BME280;63997;52.112;5.420;2023-08-21T09:45:27;102477.81;;;25.19;58.82
75418;BME280;63997;52.112;5.420;2023-08-21T09:47:56;102474.03;;;25.31;58.15
75418;BME280;63997;52.112;5.420;2023-08-21T09:50:23;102472.50;;;25.41;57.73
75418;BME280;63997;52.112;5.420;2023-08-21T09:52:51;102470.19;;;25.43;58.69
75418;BME280;63997;52.112;5.420;2023-08-21T09:55:17;102467.47;;;25.46;57.77
75418;BME280;63997;52.112;5.420;2023-08-21T09:57:44;102461.63;;;25.44;56.56
75418;BME280;63997;52.112;5.420;2023-08-21T10:00:11;102469.72;;;25.30;54.83
75418;BME280;63997;52.112;5.420;2023-08-21T10:02:51;102467.00;;;25.26;54.83
75418;BME280;63997;52.112;5.420;2023-08-21T10:05:18;102461.56;;;25.30;55.40
75418;BME280;63997;52.112;5.420;2023-08-21T10:07:49;102459.28;;;25.39;57.76
75418;BME280;63997;52.112;5.420;2023-08-21T10:10:17;102461.59;;;25.41;56.12
75418;BME280;63997;52.112;5.420;2023-08-21T10:12:44;102458.88;;;25.41;54.43
75418;BME280;63997;52.112;5.420;2023-08-21T10:15:11;102457.34;;;25.47;57.57
75418;BME280;63997;52.112;5.420;2023-08-21T10:17:38;102451.59;;;25.59;58.75
75418;BME280;63997;52.112;5.420;2023-08-21T10:20:06;102441.09;;;25.65;57.89
75418;BME280;63997;52.112;5.420;2023-08-21T10:22:46;102445.03;;;25.71;58.98
75418;BME280;63997;52.112;5.420;2023-08-21T10:25:23;102447.78;;;25.78;54.80
75418;BME280;63997;52.112;5.420;2023-08-21T10:27:58;102451.31;;;25.82;52.25
75418;BME280;63997;52.112;5.420;2023-08-21T10:30:27;102447.03;;;25.84;52.01
75418;BME280;63997;52.112;5.420;2023-08-21T10:32:55;102452.91;;;25.94;56.94
75418;BME280;63997;52.112;5.420;2023-08-21T10:35:31;102459.94;;;26.05;56.71
75418;BME280;63997;52.112;5.420;2023-08-21T10:38:11;102455.28;;;26.13;56.33
75418;BME280;63997;52.112;5.420;2023-08-21T10:40:40;102459.91;;;26.02;54.08
75418;BME280;63997;52.112;5.420;2023-08-21T10:43:38;102453.31;;;26.06;57.30
75418;BME280;63997;52.112;5.420;2023-08-21T10:46:10;102466.19;;;26.13;54.10
75418;BME280;63997;52.112;5.420;2023-08-21T10:48:37;102453.31;;;25.99;54.01
75418;BME280;63997;52.112;5.420;2023-08-21T10:51:06;102458.38;;;26.15;56.35
75418;BME280;63997;52.112;5.420;2023-08-21T10:53:33;102461.13;;;26.36;52.34
75418;BME280;63997;52.112;5.420;2023-08-21T10:56:04;102454.56;;;26.41;50.85
75418;BME280;63997;52.112;5.420;2023-08-21T10:58:44;102451.06;;;26.51;52.47
75418;BME280;63997;52.112;5.420;2023-08-21T11:01:19;102454.94;;;26.68;52.95
75418;BME280;63997;52.112;5.420;2023-08-21T11:03:46;102451.44;;;26.75;53.34
75418;BME280;63997;52.112;5.420;2023-08-21T11:06:13;102457.69;;;26.79;52.33
75418;BME280;63997;52.112;5.420;2023-08-21T11:08:39;102451.81;;;26.84;52.45
75418;BME280;63997;52.112;5.420;2023-08-21T11:11:10;102447.09;;;27.02;52.58
75418;BME280;63997;52.112;5.420;2023-08-21T11:13:36;102458.03;;;27.02;53.14
75418;BME280;63997;52.112;5.420;2023-08-21T11:16:12;102451.00;;;26.98;51.09
75418;BME280;63997;52.112;5.420;2023-08-21T11:18:42;102449.44;;;27.04;50.36
75418;BME280;63997;52.112;5.420;2023-08-21T11:21:11;102449.84;;;27.17;49.59
75418;BME280;63997;52.112;5.420;2023-08-21T11:23:40;102451.78;;;27.20;47.88
75418;BME280;63997;52.112;5.420;2023-08-21T11:26:10;102446.28;;;27.30;49.19
75418;BME280;63997;52.112;5.420;2023-08-21T11:28:47;102443.13;;;27.39;47.72
75418;BME280;63997;52.112;5.420;2023-08-21T11:31:15;102443.09;;;27.46;46.08
75418;BME280;63997;52.112;5.420;2023-08-21T11:33:49;102447.44;;;27.29;49.63
75418;BME280;63997;52.112;5.420;2023-08-21T11:36:18;102445.53;;;26.98;49.67
75418;BME280;63997;52.112;5.420;2023-08-21T11:38:58;102447.09;;;27.24;46.55
75418;BME280;63997;52.112;5.420;2023-08-21T11:41:31;102445.44;;;27.44;47.36
75418;BME280;63997;52.112;5.420;2023-08-21T11:44:07;102450.19;;;27.29;46.71
75418;BME280;63997;52.112;5.420;2023-08-21T11:46:39;102449.75;;;27.38;50.61
75418;BME280;63997;52.112;5.420;2023-08-21T11:49:09;102443.41;;;27.70;49.00
75418;BME280;63997;52.112;5.420;2023-08-21T11:51:39;102440.66;;;27.70;42.54
75418;BME280;63997;52.112;5.420;2023-08-21T11:54:06;102436.69;;;27.81;44.48
75418;BME280;63997;52.112;5.420;2023-08-21T11:56:33;102432.31;;;27.94;44.85
75418;BME280;63997;52.112;5.420;2023-08-21T11:59:04;102431.09;;;28.03;44.57
75418;BME280;63997;52.112;5.420;2023-08-21T12:01:33;102438.47;;;28.13;46.74
75418;BME280;63997;52.112;5.420;2023-08-21T12:04:14;102430.97;;;28.24;45.26
75418;BME280;63997;52.112;5.420;2023-08-21T12:06:47;102432.81;;;28.38;45.38
75418;BME280;63997;52.112;5.420;2023-08-21T12:09:13;102427.59;;;28.54;44.89
75418;BME280;63997;52.112;5.420;2023-08-21T12:11:40;102424.53;;;28.45;44.35
75418;BME280;63997;52.112;5.420;2023-08-21T12:14:07;102433.44;;;28.56;45.32
75418;BME280;63997;52.112;5.420;2023-08-21T12:16:33;102430.06;;;28.83;47.13
75418;BME280;63997;52.112;5.420;2023-08-21T12:19:00;102428.84;;;28.87;44.15
75418;BME280;63997;52.112;5.420;2023-08-21T12:21:26;102415.88;;;28.95;44.80
75418;BME280;63997;52.112;5.420;2023-08-21T12:23:53;102415.81;;;29.02;42.69
75418;BME280;63997;52.112;5.420;2023-08-21T12:26:19;102423.06;;;29.19;43.07
75418;BME280;63997;52.112;5.420;2023-08-21T12:28:54;102417.16;;;29.21;43.00
75418;BME280;63997;52.112;5.420;2023-08-21T12:31:20;102415.94;;;29.25;42.76
75418;BME280;63997;52.112;5.420;2023-08-21T12:33:47;102417.34;;;29.37;42.95
75418;BME280;63997;52.112;5.420;2023-08-21T12:36:14;102414.94;;;29.43;45.79
75418;BME280;63997;52.112;5.420;2023-08-21T12:38:40;102408.13;;;29.55;41.70
75418;BME280;63997;52.112;5.420;2023-08-21T12:41:07;102409.06;;;29.71;42.75
75418;BME280;63997;52.112;5.420;2023-08-21T12:43:33;102409.69;;;29.83;42.75
75418;BME280;63997;52.112;5.420;2023-08-21T12:45:59;102410.06;;;29.85;44.04
75418;BME280;63997;52.112;5.420;2023-08-21T12:48:26;102401.28;;;29.70;42.99
75418;BME280;63997;52.112;5.420;2023-08-21T12:50:52;102396.41;;;29.81;43.08
75418;BME280;63997;52.112;5.420;2023-08-21T12:53:19;102399.34;;;29.94;43.27
75418;BME280;63997;52.112;5.420;2023-08-21T12:55:45;102404.25;;;30.06;40.37